sensor_id;sensor_type;location;lat;lon;timestamp;temperature;humidity
24226;DHT22;51462;51.422;5.514;2022-07-22T00:01:20;16.80;99.90
24226;DHT22;51462;51.422;5.514;2022-07-22T00:03:46;16.80;99.90
24226;DHT22;51462;51.422;5.514;2022-07-22T00:06:11;16.90;99.90
24226;DHT22;51462;51.422;5.514;2022-07-22T00:08:37;16.80;99.90
24226;DHT22;51462;51.422;5.514;2022-07-22T00:11:03;16.70;99.90
24226;DHT22;51462;51.422;5.514;2022-07-22T00:13:29;16.80;99.90
24226;DHT22;51462;51.422;5.514;2022-07-22T00:15:55;16.80;99.90
24226;DHT22;51462;51.422;5.514;2022-07-22T00:18:20;16.70;99.90
24226;DHT22;51462;51.422;5.514;2022-07-22T00:20:46;16.90;99.90
24226;DHT22;51462;51.422;5.514;2022-07-22T00:23:11;16.80;99.90
24226;DHT22;51462;51.422;5.514;2022-07-22T00:25:37;16.90;99.90
24226;DHT22;51462;51.422;5.514;2022-07-22T00:28:03;16.80;99.90
24226;DHT22;51462;51.422;5.514;2022-07-22T00:30:28;16.70;99.90
24226;DHT22;51462;51.422;5.514;2022-07-22T00:32:54;16.80;99.90
24226;DHT22;51462;51.422;5.514;2022-07-22T00:35:20;16.80;99.90
24226;DHT22;51462;51.422;5.514;2022-07-22T00:37:45;16.80;99.90
24226;DHT22;51462;51.422;5.514;2022-07-22T00:40:11;16.90;99.90
24226;DHT22;51462;51.422;5.514;2022-07-22T00:42:37;17.00;99.90
24226;DHT22;51462;51.422;5.514;2022-07-22T00:45:03;17.00;99.90
24226;DHT22;51462;51.422;5.514;2022-07-22T00:47:29;16.90;99.90
24226;DHT22;51462;51.422;5.514;2022-07-22T00:49:54;16.90;99.90
24226;DHT22;51462;51.422;5.514;2022-07-22T00:52:21;16.90;99.90
24226;DHT22;51462;51.422;5.514;2022-07-22T00:54:47;16.90;99.90
24226;DHT22;51462;51.422;5.514;2022-07-22T00:57:13;16.90;99.90
24226;DHT22;51462;51.422;5.514;2022-07-22T00:59:39;16.80;99.90
24226;DHT22;51462;51.422;5.514;2022-07-22T01:02:05;16.70;99.90
24226;DHT22;51462;51.422;5.514;2022-07-22T01:04:30;16.70;99.90
24226;DHT22;51462;51.422;5.514;2022-07-22T01:06:56;16.80;99.90
24226;DHT22;51462;51.422;5.514;2022-07-22T01:09:21;16.70;99.90
24226;DHT22;51462;51.422;5.514;2022-07-22T01:11:47;17.00;99.90
24226;DHT22;51462;51.422;5.514;2022-07-22T01:14:13;16.90;99.90
24226;DHT22;51462;51.422;5.514;2022-07-22T01:16:38;17.10;99.90
24226;DHT22;51462;51.422;5.514;2022-07-22T01:19:05;17.10;99.90
24226;DHT22;51462;51.422;5.514;2022-07-22T01:21:31;17.00;99.90
24226;DHT22;51462;51.422;5.514;2022-07-22T01:23:57;17.10;99.90
24226;DHT22;51462;51.422;5.514;2022-07-22T01:26:22;16.90;99.90
24226;DHT22;51462;51.422;5.514;2022-07-22T01:28:48;16.70;99.90
24226;DHT22;51462;51.422;5.514;2022-07-22T01:31:14;16.70;99.90
24226;DHT22;51462;51.422;5.514;2022-07-22T01:33:40;16.70;99.90
24226;DHT22;51462;51.422;5.514;2022-07-22T01:36:06;16.60;99.90
24226;DHT22;51462;51.422;5.514;2022-07-22T01:38:32;16.60;99.90
24226;DHT22;51462;51.422;5.514;2022-07-22T01:40:58;16.60;99.90
24226;DHT22;51462;51.422;5.514;2022-07-22T01:43:24;16.60;99.90
24226;DHT22;51462;51.422;5.514;2022-07-22T01:45:51;16.60;99.90
24226;DHT22;51462;51.422;5.514;2022-07-22T01:48:17;16.80;99.90
24226;DHT22;51462;51.422;5.514;2022-07-22T01:50:44;16.70;99.90
24226;DHT22;51462;51.422;5.514;2022-07-22T01:53:10;16.60;99.90
24226;DHT22;51462;51.422;5.514;2022-07-22T01:55:36;16.50;99.90
24226;DHT22;51462;51.422;5.514;2022-07-22T01:58:02;16.50;99.90
24226;DHT22;51462;51.422;5.514;2022-07-22T02:00:29;16.40;99.90
24226;DHT22;51462;51.422;5.514;2022-07-22T02:02:55;16.30;99.90
24226;DHT22;51462;51.422;5.514;2022-07-22T02:05:20;16.40;99.90
24226;DHT22;51462;51.422;5.514;2022-07-22T02:07:46;16.60;99.90
24226;DHT22;51462;51.422;5.514;2022-07-22T02:10:11;16.80;99.90
24226;DHT22;51462;51.422;5.514;2022-07-22T02:12:37;16.80;99.90
24226;DHT22;51462;51.422;5.514;2022-07-22T02:15:03;16.90;99.90
24226;DHT22;51462;51.422;5.514;2022-07-22T02:17:29;17.00;99.90
24226;DHT22;51462;51.422;5.514;2022-07-22T02:19:55;16.80;99.90
24226;DHT22;51462;51.422;5.514;2022-07-22T02:22:20;16.70;99.90
24226;DHT22;51462;51.422;5.514;2022-07-22T02:24:46;16.80;99.90
24226;DHT22;51462;51.422;5.514;2022-07-22T02:27:11;16.80;99.90
24226;DHT22;51462;51.422;5.514;2022-07-22T02:29:37;16.80;99.90
24226;DHT22;51462;51.422;5.514;2022-07-22T02:32:03;16.80;99.90
24226;DHT22;51462;51.422;5.514;2022-07-22T02:34:28;16.60;99.90
24226;DHT22;51462;51.422;5.514;2022-07-22T02:36:54;16.50;99.90
24226;DHT22;51462;51.422;5.514;2022-07-22T02:39:20;16.50;99.90
24226;DHT22;51462;51.422;5.514;2022-07-22T02:41:45;16.40;99.90
24226;DHT22;51462;51.422;5.514;2022-07-22T02:44:11;16.40;99.90
24226;DHT22;51462;51.422;5.514;2022-07-22T02:46:36;16.30;99.90
24226;DHT22;51462;51.422;5.514;2022-07-22T02:49:02;16.30;99.90
24226;DHT22;51462;51.422;5.514;2022-07-22T02:51:29;16.50;99.90
24226;DHT22;51462;51.422;5.514;2022-07-22T02:53:55;16.70;99.90
24226;DHT22;51462;51.422;5.514;2022-07-22T02:56:21;16.70;99.90
24226;DHT22;51462;51.422;5.514;2022-07-22T02:58:46;16.70;99.90
24226;DHT22;51462;51.422;5.514;2022-07-22T03:01:12;16.80;99.90
24226;DHT22;51462;51.422;5.514;2022-07-22T03:03:38;16.90;99.90
24226;DHT22;51462;51.422;5.514;2022-07-22T03:06:04;16.90;99.90
24226;DHT22;51462;51.422;5.514;2022-07-22T03:08:29;16.80;99.90
24226;DHT22;51462;51.422;5.514;2022-07-22T03:10:55;16.80;99.90
24226;DHT22;51462;51.422;5.514;2022-07-22T03:13:20;16.70;99.90
24226;DHT22;51462;51.422;5.514;2022-07-22T03:15:46;16.70;99.90
24226;DHT22;51462;51.422;5.514;2022-07-22T03:18:12;16.60;99.90
24226;DHT22;51462;51.422;5.514;2022-07-22T03:20:37;16.50;99.90
24226;DHT22;51462;51.422;5.514;2022-07-22T03:23:03;16.50;99.90
24226;DHT22;51462;51.422;5.514;2022-07-22T03:25:28;16.50;99.90
24226;DHT22;51462;51.422;5.514;2022-07-22T03:27:56;16.60;99.90
24226;DHT22;51462;51.422;5.514;2022-07-22T03:30:22;16.60;99.90
24226;DHT22;51462;51.422;5.514;2022-07-22T03:32:47;16.50;99.90
24226;DHT22;51462;51.422;5.514;2022-07-22T03:35:13;16.50;99.90
24226;DHT22;51462;51.422;5.514;2022-07-22T03:37:39;16.60;99.90
24226;DHT22;51462;51.422;5.514;2022-07-22T03:40:05;16.60;99.90
24226;DHT22;51462;51.422;5.514;2022-07-22T03:42:32;16.60;99.90
24226;DHT22;51462;51.422;5.514;2022-07-22T03:44:58;16.60;99.90
24226;DHT22;51462;51.422;5.514;2022-07-22T03:47:23;16.60;99.90
24226;DHT22;51462;51.422;5.514;2022-07-22T03:49:50;16.60;99.90
24226;DHT22;51462;51.422;5.514;2022-07-22T03:52:16;16.60;99.90
24226;DHT22;51462;51.422;5.514;2022-07-22T03:54:42;16.50;99.90
24226;DHT22;51462;51.422;5.514;2022-07-22T03:57:07;16.50;99.90
24226;DHT22;51462;51.422;5.514;2022-07-22T03:59:33;16.50;99.90
24226;DHT22;51462;51.422;5.514;2022-07-22T04:01:59;16.60;99.90
24226;DHT22;51462;51.422;5.514;2022-07-22T04:04:25;16.60;99.90
24226;DHT22;51462;51.422;5.514;2022-07-22T04:06:50;16.60;99.90
24226;DHT22;51462;51.422;5.514;2022-07-22T04:09:19;16.50;99.90
24226;DHT22;51462;51.422;5.514;2022-07-22T04:11:45;16.40;99.90
24226;DHT22;51462;51.422;5.514;2022-07-22T04:14:10;16.50;99.90
24226;DHT22;51462;51.422;5.514;2022-07-22T04:16:36;16.40;99.90
24226;DHT22;51462;51.422;5.514;2022-07-22T04:19:03;16.50;99.90
24226;DHT22;51462;51.422;5.514;2022-07-22T04:21:28;16.50;99.90
24226;DHT22;51462;51.422;5.514;2022-07-22T04:23:54;16.50;99.90
24226;DHT22;51462;51.422;5.514;2022-07-22T04:26:20;16.50;99.90
24226;DHT22;51462;51.422;5.514;2022-07-22T04:28:45;16.60;99.90
24226;DHT22;51462;51.422;5.514;2022-07-22T04:31:11;16.50;99.90
24226;DHT22;51462;51.422;5.514;2022-07-22T04:33:37;16.50;99.90
24226;DHT22;51462;51.422;5.514;2022-07-22T04:36:03;16.50;99.90
24226;DHT22;51462;51.422;5.514;2022-07-22T04:38:29;16.50;99.90
24226;DHT22;51462;51.422;5.514;2022-07-22T04:40:55;16.40;99.90
24226;DHT22;51462;51.422;5.514;2022-07-22T04:43:20;16.40;99.90
24226;DHT22;51462;51.422;5.514;2022-07-22T04:45:46;16.40;99.90
24226;DHT22;51462;51.422;5.514;2022-07-22T04:48:11;16.40;99.90
24226;DHT22;51462;51.422;5.514;2022-07-22T04:50:37;16.40;99.90
24226;DHT22;51462;51.422;5.514;2022-07-22T04:53:03;16.50;99.90
24226;DHT22;51462;51.422;5.514;2022-07-22T04:55:28;16.60;99.90
24226;DHT22;51462;51.422;5.514;2022-07-22T04:57:54;16.60;99.90
24226;DHT22;51462;51.422;5.514;2022-07-22T05:00:20;16.60;99.90
24226;DHT22;51462;51.422;5.514;2022-07-22T05:02:45;16.60;99.90
24226;DHT22;51462;51.422;5.514;2022-07-22T05:05:11;16.70;99.90
24226;DHT22;51462;51.422;5.514;2022-07-22T05:07:37;16.80;99.90
24226;DHT22;51462;51.422;5.514;2022-07-22T05:10:03;16.80;99.90
24226;DHT22;51462;51.422;5.514;2022-07-22T05:12:28;16.90;99.90
24226;DHT22;51462;51.422;5.514;2022-07-22T05:14:54;16.80;99.90
24226;DHT22;51462;51.422;5.514;2022-07-22T05:17:19;16.70;99.90
24226;DHT22;51462;51.422;5.514;2022-07-22T05:19:45;16.80;99.90
24226;DHT22;51462;51.422;5.514;2022-07-22T05:22:10;16.80;99.90
24226;DHT22;51462;51.422;5.514;2022-07-22T05:24:36;16.80;99.90
24226;DHT22;51462;51.422;5.514;2022-07-22T05:27:01;16.70;99.90
24226;DHT22;51462;51.422;5.514;2022-07-22T05:29:27;16.60;99.90
24226;DHT22;51462;51.422;5.514;2022-07-22T05:31:53;16.60;99.90
24226;DHT22;51462;51.422;5.514;2022-07-22T05:34:18;16.60;99.90
24226;DHT22;51462;51.422;5.514;2022-07-22T05:36:44;16.60;99.90
24226;DHT22;51462;51.422;5.514;2022-07-22T05:39:10;16.60;99.90
24226;DHT22;51462;51.422;5.514;2022-07-22T05:41:35;16.60;99.90
24226;DHT22;51462;51.422;5.514;2022-07-22T05:44:02;16.50;99.90
24226;DHT22;51462;51.422;5.514;2022-07-22T05:46:28;16.60;99.90
24226;DHT22;51462;51.422;5.514;2022-07-22T05:48:53;16.60;99.90
24226;DHT22;51462;51.422;5.514;2022-07-22T05:51:20;16.70;99.90
24226;DHT22;51462;51.422;5.514;2022-07-22T05:53:45;16.70;99.90
24226;DHT22;51462;51.422;5.514;2022-07-22T05:56:11;16.80;99.90
24226;DHT22;51462;51.422;5.514;2022-07-22T05:58:41;16.80;99.90
24226;DHT22;51462;51.422;5.514;2022-07-22T06:01:11;16.80;99.90
24226;DHT22;51462;51.422;5.514;2022-07-22T06:03:37;16.90;99.90
24226;DHT22;51462;51.422;5.514;2022-07-22T06:06:03;16.80;99.90
24226;DHT22;51462;51.422;5.514;2022-07-22T06:08:30;16.90;99.90
24226;DHT22;51462;51.422;5.514;2022-07-22T06:10:57;16.90;99.90
24226;DHT22;51462;51.422;5.514;2022-07-22T06:13:22;17.00;99.90
24226;DHT22;51462;51.422;5.514;2022-07-22T06:15:48;16.90;99.90
24226;DHT22;51462;51.422;5.514;2022-07-22T06:18:13;16.90;99.90
24226;DHT22;51462;51.422;5.514;2022-07-22T06:20:39;17.00;99.90
24226;DHT22;51462;51.422;5.514;2022-07-22T06:23:04;17.20;99.90
24226;DHT22;51462;51.422;5.514;2022-07-22T06:25:30;17.20;99.90
24226;DHT22;51462;51.422;5.514;2022-07-22T06:27:56;17.20;99.90
24226;DHT22;51462;51.422;5.514;2022-07-22T06:30:21;17.30;99.90
24226;DHT22;51462;51.422;5.514;2022-07-22T06:32:47;17.30;99.90
24226;DHT22;51462;51.422;5.514;2022-07-22T06:35:12;17.40;99.90
24226;DHT22;51462;51.422;5.514;2022-07-22T06:37:38;17.50;99.90
24226;DHT22;51462;51.422;5.514;2022-07-22T06:40:04;17.60;99.90
24226;DHT22;51462;51.422;5.514;2022-07-22T06:42:30;17.60;99.90
24226;DHT22;51462;51.422;5.514;2022-07-22T06:44:56;17.50;99.90
24226;DHT22;51462;51.422;5.514;2022-07-22T06:47:21;17.60;99.90
24226;DHT22;51462;51.422;5.514;2022-07-22T06:49:47;17.60;99.90
24226;DHT22;51462;51.422;5.514;2022-07-22T06:52:13;17.60;99.90
24226;DHT22;51462;51.422;5.514;2022-07-22T06:54:38;17.60;99.90
24226;DHT22;51462;51.422;5.514;2022-07-22T06:57:04;17.60;99.90
24226;DHT22;51462;51.422;5.514;2022-07-22T06:59:29;17.70;99.90
24226;DHT22;51462;51.422;5.514;2022-07-22T07:01:55;17.80;99.90
24226;DHT22;51462;51.422;5.514;2022-07-22T07:04:20;17.80;99.90
24226;DHT22;51462;51.422;5.514;2022-07-22T07:06:46;17.90;99.90
24226;DHT22;51462;51.422;5.514;2022-07-22T07:09:12;17.90;99.90
24226;DHT22;51462;51.422;5.514;2022-07-22T07:11:37;18.10;99.90
24226;DHT22;51462;51.422;5.514;2022-07-22T07:14:03;18.10;99.90
24226;DHT22;51462;51.422;5.514;2022-07-22T07:16:29;18.20;99.90
24226;DHT22;51462;51.422;5.514;2022-07-22T07:18:54;18.20;99.90
24226;DHT22;51462;51.422;5.514;2022-07-22T07:21:20;18.40;99.90
24226;DHT22;51462;51.422;5.514;2022-07-22T07:23:46;18.50;99.90
24226;DHT22;51462;51.422;5.514;2022-07-22T07:26:11;18.50;99.90
24226;DHT22;51462;51.422;5.514;2022-07-22T07:28:37;18.30;99.90
24226;DHT22;51462;51.422;5.514;2022-07-22T07:31:02;18.40;99.90
24226;DHT22;51462;51.422;5.514;2022-07-22T07:33:28;18.40;99.90
24226;DHT22;51462;51.422;5.514;2022-07-22T07:35:53;18.40;99.90
24226;DHT22;51462;51.422;5.514;2022-07-22T07:38:19;18.50;99.90
24226;DHT22;51462;51.422;5.514;2022-07-22T07:40:45;18.60;99.90
24226;DHT22;51462;51.422;5.514;2022-07-22T07:43:11;18.40;99.90
24226;DHT22;51462;51.422;5.514;2022-07-22T07:45:36;18.50;99.90
24226;DHT22;51462;51.422;5.514;2022-07-22T07:48:02;18.60;99.90
24226;DHT22;51462;51.422;5.514;2022-07-22T07:50:28;18.80;99.90
24226;DHT22;51462;51.422;5.514;2022-07-22T07:52:54;18.80;99.90
24226;DHT22;51462;51.422;5.514;2022-07-22T07:55:20;18.90;99.90
24226;DHT22;51462;51.422;5.514;2022-07-22T07:57:47;19.00;99.90
24226;DHT22;51462;51.422;5.514;2022-07-22T08:00:15;19.00;99.90
24226;DHT22;51462;51.422;5.514;2022-07-22T08:02:40;19.00;99.90
24226;DHT22;51462;51.422;5.514;2022-07-22T08:05:07;19.00;99.90
24226;DHT22;51462;51.422;5.514;2022-07-22T08:07:32;19.00;99.90
24226;DHT22;51462;51.422;5.514;2022-07-22T08:09:58;19.00;99.90
24226;DHT22;51462;51.422;5.514;2022-07-22T08:12:24;19.00;99.90
24226;DHT22;51462;51.422;5.514;2022-07-22T08:14:49;19.20;99.90
24226;DHT22;51462;51.422;5.514;2022-07-22T08:17:15;19.20;99.90
24226;DHT22;51462;51.422;5.514;2022-07-22T08:19:40;19.30;99.90
24226;DHT22;51462;51.422;5.514;2022-07-22T08:22:06;19.10;99.90
24226;DHT22;51462;51.422;5.514;2022-07-22T08:24:31;19.10;99.90
24226;DHT22;51462;51.422;5.514;2022-07-22T08:26:57;19.40;99.90
24226;DHT22;51462;51.422;5.514;2022-07-22T08:29:22;19.40;99.90
24226;DHT22;51462;51.422;5.514;2022-07-22T08:31:48;19.50;99.90
24226;DHT22;51462;51.422;5.514;2022-07-22T08:34:13;19.50;99.90
24226;DHT22;51462;51.422;5.514;2022-07-22T08:36:39;19.20;99.90
24226;DHT22;51462;51.422;5.514;2022-07-22T08:39:04;19.20;99.90
24226;DHT22;51462;51.422;5.514;2022-07-22T08:41:35;19.20;99.90
24226;DHT22;51462;51.422;5.514;2022-07-22T08:44:03;19.30;99.90
24226;DHT22;51462;51.422;5.514;2022-07-22T08:46:29;19.50;99.90
24226;DHT22;51462;51.422;5.514;2022-07-22T08:48:54;19.70;99.90
24226;DHT22;51462;51.422;5.514;2022-07-22T08:51:21;19.70;99.90
24226;DHT22;51462;51.422;5.514;2022-07-22T08:53:46;19.60;99.90
24226;DHT22;51462;51.422;5.514;2022-07-22T08:56:13;19.50;99.90
24226;DHT22;51462;51.422;5.514;2022-07-22T08:58:39;19.80;99.90
24226;DHT22;51462;51.422;5.514;2022-07-22T09:01:11;20.00;99.90
24226;DHT22;51462;51.422;5.514;2022-07-22T09:03:51;20.10;99.90
24226;DHT22;51462;51.422;5.514;2022-07-22T09:06:22;20.30;99.90
24226;DHT22;51462;51.422;5.514;2022-07-22T09:08:57;20.40;99.90
24226;DHT22;51462;51.422;5.514;2022-07-22T09:11:24;20.50;99.90
24226;DHT22;51462;51.422;5.514;2022-07-22T09:13:51;20.50;99.90
24226;DHT22;51462;51.422;5.514;2022-07-22T09:16:38;20.60;99.90
24226;DHT22;51462;51.422;5.514;2022-07-22T09:19:04;20.50;99.90
24226;DHT22;51462;51.422;5.514;2022-07-22T09:21:30;20.50;99.90
24226;DHT22;51462;51.422;5.514;2022-07-22T09:23:56;20.70;99.90
24226;DHT22;51462;51.422;5.514;2022-07-22T09:26:36;20.70;99.90
24226;DHT22;51462;51.422;5.514;2022-07-22T09:29:04;20.80;99.90
24226;DHT22;51462;51.422;5.514;2022-07-22T09:31:34;21.00;99.90
24226;DHT22;51462;51.422;5.514;2022-07-22T09:34:01;21.00;99.90
24226;DHT22;51462;51.422;5.514;2022-07-22T09:36:27;20.70;99.90
24226;DHT22;51462;51.422;5.514;2022-07-22T09:38:53;20.70;99.90
24226;DHT22;51462;51.422;5.514;2022-07-22T09:41:19;20.80;99.90
24226;DHT22;51462;51.422;5.514;2022-07-22T09:43:46;20.30;99.90
24226;DHT22;51462;51.422;5.514;2022-07-22T09:46:11;20.50;99.90
24226;DHT22;51462;51.422;5.514;2022-07-22T09:48:38;20.80;99.90
24226;DHT22;51462;51.422;5.514;2022-07-22T09:51:05;20.90;99.90
24226;DHT22;51462;51.422;5.514;2022-07-22T09:53:31;20.70;99.90
24226;DHT22;51462;51.422;5.514;2022-07-22T09:56:02;20.70;99.90
24226;DHT22;51462;51.422;5.514;2022-07-22T09:58:28;20.80;99.90
24226;DHT22;51462;51.422;5.514;2022-07-22T10:00:55;20.90;99.90
24226;DHT22;51462;51.422;5.514;2022-07-22T10:03:28;21.10;99.90
24226;DHT22;51462;51.422;5.514;2022-07-22T10:05:54;21.00;99.90
24226;DHT22;51462;51.422;5.514;2022-07-22T10:08:21;21.10;99.90
24226;DHT22;51462;51.422;5.514;2022-07-22T10:10:48;21.20;99.90
24226;DHT22;51462;51.422;5.514;2022-07-22T10:13:13;21.30;99.90
24226;DHT22;51462;51.422;5.514;2022-07-22T10:15:39;21.30;99.90
24226;DHT22;51462;51.422;5.514;2022-07-22T10:18:14;21.40;99.90
24226;DHT22;51462;51.422;5.514;2022-07-22T10:20:40;21.50;99.90
24226;DHT22;51462;51.422;5.514;2022-07-22T10:23:07;21.40;99.90
24226;DHT22;51462;51.422;5.514;2022-07-22T10:25:57;21.60;99.90
24226;DHT22;51462;51.422;5.514;2022-07-22T10:28:29;21.30;99.90
24226;DHT22;51462;51.422;5.514;2022-07-22T10:31:17;21.10;99.90
24226;DHT22;51462;51.422;5.514;2022-07-22T10:33:49;21.10;99.90
24226;DHT22;51462;51.422;5.514;2022-07-22T10:36:29;21.10;99.90
24226;DHT22;51462;51.422;5.514;2022-07-22T10:39:05;21.10;99.90
24226;DHT22;51462;51.422;5.514;2022-07-22T10:41:35;21.20;99.90
24226;DHT22;51462;51.422;5.514;2022-07-22T10:44:00;21.50;99.90
24226;DHT22;51462;51.422;5.514;2022-07-22T10:46:48;21.80;99.90
24226;DHT22;51462;51.422;5.514;2022-07-22T10:49:17;21.80;99.90
24226;DHT22;51462;51.422;5.514;2022-07-22T10:55:17;21.50;99.90
24226;DHT22;51462;51.422;5.514;2022-07-22T10:57:42;21.80;99.90
24226;DHT22;51462;51.422;5.514;2022-07-22T11:00:08;22.00;99.90
24226;DHT22;51462;51.422;5.514;2022-07-22T11:02:37;22.10;99.90
24226;DHT22;51462;51.422;5.514;2022-07-22T11:05:03;21.90;99.90
24226;DHT22;51462;51.422;5.514;2022-07-22T11:07:29;22.00;99.90
24226;DHT22;51462;51.422;5.514;2022-07-22T11:10:09;22.10;99.90
24226;DHT22;51462;51.422;5.514;2022-07-22T11:12:35;22.20;99.90
24226;DHT22;51462;51.422;5.514;2022-07-22T11:15:02;22.10;99.90
24226;DHT22;51462;51.422;5.514;2022-07-22T11:17:28;22.20;99.90
24226;DHT22;51462;51.422;5.514;2022-07-22T11:19:58;22.30;99.90
24226;DHT22;51462;51.422;5.514;2022-07-22T11:22:23;22.40;99.90
24226;DHT22;51462;51.422;5.514;2022-07-22T11:24:49;22.60;99.90
24226;DHT22;51462;51.422;5.514;2022-07-22T11:27:16;22.60;99.90
24226;DHT22;51462;51.422;5.514;2022-07-22T11:29:43;22.60;99.90
24226;DHT22;51462;51.422;5.514;2022-07-22T11:32:12;22.70;99.90
24226;DHT22;51462;51.422;5.514;2022-07-22T11:34:40;22.90;99.90
24226;DHT22;51462;51.422;5.514;2022-07-22T11:37:11;22.80;99.90
24226;DHT22;51462;51.422;5.514;2022-07-22T11:39:37;23.00;99.90
24226;DHT22;51462;51.422;5.514;2022-07-22T11:42:03;23.00;99.90
24226;DHT22;51462;51.422;5.514;2022-07-22T11:44:34;22.80;99.90
24226;DHT22;51462;51.422;5.514;2022-07-22T11:47:00;23.00;99.90
24226;DHT22;51462;51.422;5.514;2022-07-22T11:49:28;23.10;99.90
24226;DHT22;51462;51.422;5.514;2022-07-22T11:51:53;23.20;99.90
24226;DHT22;51462;51.422;5.514;2022-07-22T11:54:19;23.30;99.90
24226;DHT22;51462;51.422;5.514;2022-07-22T11:56:45;23.10;99.90
24226;DHT22;51462;51.422;5.514;2022-07-22T11:59:15;23.20;99.90
24226;DHT22;51462;51.422;5.514;2022-07-22T12:01:41;23.40;99.90
24226;DHT22;51462;51.422;5.514;2022-07-22T12:04:15;23.50;99.90
24226;DHT22;51462;51.422;5.514;2022-07-22T12:06:43;23.60;99.90
24226;DHT22;51462;51.422;5.514;2022-07-22T12:11:42;23.90;99.90
24226;DHT22;51462;51.422;5.514;2022-07-22T12:14:18;23.80;99.90
24226;DHT22;51462;51.422;5.514;2022-07-22T12:17:14;23.80;99.90
24226;DHT22;51462;51.422;5.514;2022-07-22T12:19:40;23.90;99.90
24226;DHT22;51462;51.422;5.514;2022-07-22T12:22:10;23.60;99.90
24226;DHT22;51462;51.422;5.514;2022-07-22T12:24:43;23.60;99.90
24226;DHT22;51462;51.422;5.514;2022-07-22T12:27:17;23.50;99.90
24226;DHT22;51462;51.422;5.514;2022-07-22T12:29:47;24.00;99.90
24226;DHT22;51462;51.422;5.514;2022-07-22T12:34:55;24.40;99.90
24226;DHT22;51462;51.422;5.514;2022-07-22T12:37:23;24.00;99.90
24226;DHT22;51462;51.422;5.514;2022-07-22T12:42:18;24.20;99.90
24226;DHT22;51462;51.422;5.514;2022-07-22T12:45:11;24.40;99.90
24226;DHT22;51462;51.422;5.514;2022-07-22T12:47:49;24.70;99.90
24226;DHT22;51462;51.422;5.514;2022-07-22T12:50:26;24.90;99.90
24226;DHT22;51462;51.422;5.514;2022-07-22T12:52:57;25.00;99.90
24226;DHT22;51462;51.422;5.514;2022-07-22T12:55:24;24.80;99.90
24226;DHT22;51462;51.422;5.514;2022-07-22T12:57:50;24.80;99.90
24226;DHT22;51462;51.422;5.514;2022-07-22T13:00:20;24.90;99.90
24226;DHT22;51462;51.422;5.514;2022-07-22T13:02:47;25.20;99.90
24226;DHT22;51462;51.422;5.514;2022-07-22T13:05:12;25.10;99.90
24226;DHT22;51462;51.422;5.514;2022-07-22T13:07:39;25.10;99.90
24226;DHT22;51462;51.422;5.514;2022-07-22T13:10:05;25.00;99.90
24226;DHT22;51462;51.422;5.514;2022-07-22T13:12:31;25.10;99.90
24226;DHT22;51462;51.422;5.514;2022-07-22T13:14:57;25.60;99.90
24226;DHT22;51462;51.422;5.514;2022-07-22T13:17:22;25.60;99.90
24226;DHT22;51462;51.422;5.514;2022-07-22T13:19:48;25.70;99.90
24226;DHT22;51462;51.422;5.514;2022-07-22T13:22:13;25.80;99.90
24226;DHT22;51462;51.422;5.514;2022-07-22T13:24:39;25.80;99.90
24226;DHT22;51462;51.422;5.514;2022-07-22T13:27:04;25.70;99.90
24226;DHT22;51462;51.422;5.514;2022-07-22T13:29:30;25.60;99.90
24226;DHT22;51462;51.422;5.514;2022-07-22T13:31:55;25.70;99.90
24226;DHT22;51462;51.422;5.514;2022-07-22T13:34:21;25.80;99.90
24226;DHT22;51462;51.422;5.514;2022-07-22T13:36:46;26.10;99.90
24226;DHT22;51462;51.422;5.514;2022-07-22T13:39:12;26.20;99.90
24226;DHT22;51462;51.422;5.514;2022-07-22T13:41:38;26.00;99.90
24226;DHT22;51462;51.422;5.514;2022-07-22T13:44:03;26.20;99.90
24226;DHT22;51462;51.422;5.514;2022-07-22T13:46:34;25.80;99.90
24226;DHT22;51462;51.422;5.514;2022-07-22T13:48:59;26.00;99.90
24226;DHT22;51462;51.422;5.514;2022-07-22T13:51:25;25.80;99.90
24226;DHT22;51462;51.422;5.514;2022-07-22T13:53:50;26.00;99.90
24226;DHT22;51462;51.422;5.514;2022-07-22T13:56:16;26.00;99.90
24226;DHT22;51462;51.422;5.514;2022-07-22T13:58:41;25.80;99.90
24226;DHT22;51462;51.422;5.514;2022-07-22T14:01:08;26.40;99.90
24226;DHT22;51462;51.422;5.514;2022-07-22T14:03:35;26.80;99.90
24226;DHT22;51462;51.422;5.514;2022-07-22T14:06:02;27.10;99.90
24226;DHT22;51462;51.422;5.514;2022-07-22T14:08:27;27.20;99.90
24226;DHT22;51462;51.422;5.514;2022-07-22T14:10:53;26.80;99.90
24226;DHT22;51462;51.422;5.514;2022-07-22T14:13:18;26.40;99.90
24226;DHT22;51462;51.422;5.514;2022-07-22T14:15:44;26.70;99.90
24226;DHT22;51462;51.422;5.514;2022-07-22T14:18:10;27.10;99.90
24226;DHT22;51462;51.422;5.514;2022-07-22T14:20:36;27.30;99.90
24226;DHT22;51462;51.422;5.514;2022-07-22T14:23:02;27.10;99.90
24226;DHT22;51462;51.422;5.514;2022-07-22T14:25:28;27.00;99.90
24226;DHT22;51462;51.422;5.514;2022-07-22T14:27:54;27.20;99.90
24226;DHT22;51462;51.422;5.514;2022-07-22T14:30:19;27.40;99.90
24226;DHT22;51462;51.422;5.514;2022-07-22T14:32:45;27.10;99.90
24226;DHT22;51462;51.422;5.514;2022-07-22T14:35:10;27.20;99.90
24226;DHT22;51462;51.422;5.514;2022-07-22T14:37:36;27.20;99.90
24226;DHT22;51462;51.422;5.514;2022-07-22T14:40:02;27.30;99.90
24226;DHT22;51462;51.422;5.514;2022-07-22T14:42:28;27.20;99.90
24226;DHT22;51462;51.422;5.514;2022-07-22T14:44:53;27.40;99.90
24226;DHT22;51462;51.422;5.514;2022-07-22T14:47:19;27.00;99.90
24226;DHT22;51462;51.422;5.514;2022-07-22T14:49:44;27.20;99.90
24226;DHT22;51462;51.422;5.514;2022-07-22T14:52:10;27.50;99.90
24226;DHT22;51462;51.422;5.514;2022-07-22T14:54:36;27.70;99.90
24226;DHT22;51462;51.422;5.514;2022-07-22T14:57:01;27.30;99.90
24226;DHT22;51462;51.422;5.514;2022-07-22T14:59:28;27.10;99.90
24226;DHT22;51462;51.422;5.514;2022-07-22T15:01:54;26.70;99.90
24226;DHT22;51462;51.422;5.514;2022-07-22T15:04:20;26.80;99.90
24226;DHT22;51462;51.422;5.514;2022-07-22T15:06:45;26.90;99.90
24226;DHT22;51462;51.422;5.514;2022-07-22T15:09:11;27.10;99.90
24226;DHT22;51462;51.422;5.514;2022-07-22T15:11:36;27.30;99.90
24226;DHT22;51462;51.422;5.514;2022-07-22T15:14:02;26.90;99.90
24226;DHT22;51462;51.422;5.514;2022-07-22T15:16:28;26.90;99.90
24226;DHT22;51462;51.422;5.514;2022-07-22T15:18:53;27.00;99.90
24226;DHT22;51462;51.422;5.514;2022-07-22T15:21:19;26.80;99.90
24226;DHT22;51462;51.422;5.514;2022-07-22T15:23:44;26.70;99.90
24226;DHT22;51462;51.422;5.514;2022-07-22T15:26:10;26.80;99.90
24226;DHT22;51462;51.422;5.514;2022-07-22T15:28:36;26.80;99.90
24226;DHT22;51462;51.422;5.514;2022-07-22T15:31:03;26.30;99.90
24226;DHT22;51462;51.422;5.514;2022-07-22T15:33:29;26.40;99.90
24226;DHT22;51462;51.422;5.514;2022-07-22T15:35:55;26.30;99.90
24226;DHT22;51462;51.422;5.514;2022-07-22T15:38:20;26.30;99.90